Aérodrome :
LOGIN :

S'inscrire | Disclaimer

   EN    FR    IT 

 










Légende :    VFR   VFR Marginal   IFR   IFR Intensif   IFR Très Intensif
Visi : 
Plafond : 
>= 8 km
>= 3000ft
5 à 8 km
1000 à 3000 ft
1500m à 5 km
500 à 1000 ft
800 à 1500m
200 à 500 ft
< 800m
< 200 ft
Symboles :   Orages  Brouillard  Fortes neiges  Fortes précipitations  Vent > 20 kt
SIGMETs :   Divers  Orages  Givrage  Turbulence  Onde Orograph.  Cendres Volcan.







- Altitude de l'aérodrome : 348 ft
- Code IATA : LDV
- Voir les cartes d'approche


LFRJ - Landivisiau

DERNIER METAR :
  • 221800Z AUTO 24007KT 9999 BKN013 BKN018 BKN100 09/08 Q1023 NOSIG

METARs EXPIRÉS :
  • 221730Z AUTO 24007KT 9999 BKN015 10/08 Q1022 BECMG BKN010
  • 221700Z AUTO 26007KT 9999 FEW013 10/08 Q1022 BECMG BKN009
  • 221630Z AUTO 27007KT 9999 BKN022 OVC028 11/08 Q1022 BECMG BKN009
  • 221600Z AUTO 28009KT 9999 OVC025 11/07 Q1022 NOSIG
  • 221530Z AUTO 28010KT 9999 FEW021 BKN027 OVC033 11/07 Q1022 NOSIG

TAF TAF LFRJ
Valide du 22 à 18h jusqu'au 23 à 03h UTC


221700Z 2218/2303 25008KT 9999 SCT015
BECMG 2218/2220 BKN010
BECMG 2222/2224 19010KT 3000 RADZ BKN006
BECMG 2300/2302 OVC002
TEMPO 2302/2303 0800 FG VV///
Pas de NOTAMs connus pour ce terrain.



MET'MAP, la Météo Aéronautique d'un coup d'oeil ! - Copyright ORBIFLY Décembre 2007 - Disclaimer

ORBIFLY MET'MAP TEAM :

Programmation & Développement : Alexandra Zaïnal
Conception & Développement : Baudouin d'Aumeries
Co-Programmation & Développement : Marc-Olivier Méhu
Soutien technique & logistique : Manuel Goepfert

Contact : metmap@orbifly.com




SOURCES & CREDITS :

   NOAA